createdAt,value
2017-06-05T00:00:53.341Z,11.25
2017-06-05T00:01:53.334Z,11.22
2017-06-05T00:02:53.324Z,11.22
2017-06-05T00:03:53.320Z,11.17
2017-06-05T00:04:53.315Z,11.14
2017-06-05T00:05:53.306Z,11.06
2017-06-05T00:06:53.298Z,11.07
2017-06-05T00:07:53.296Z,11.07
2017-06-05T00:08:53.286Z,11.03
2017-06-05T00:09:53.277Z,11.04
2017-06-05T00:10:53.270Z,11.11
2017-06-05T00:11:53.263Z,11.03
2017-06-05T00:12:53.255Z,11.22
2017-06-05T00:13:53.247Z,11.15
2017-06-05T00:14:53.247Z,11.28
2017-06-05T00:15:53.237Z,11.27
2017-06-05T00:16:53.226Z,11.32
2017-06-05T00:17:52.924Z,11.25
2017-06-05T00:18:53.213Z,11.33
2017-06-05T00:19:53.210Z,11.36
2017-06-05T00:20:53.199Z,11.44
2017-06-05T00:21:53.193Z,11.54
2017-06-05T00:22:52.886Z,11.55
2017-06-05T00:23:53.184Z,11.69
2017-06-05T00:24:53.176Z,11.73
2017-06-05T00:25:53.169Z,11.82
2017-06-05T00:26:53.159Z,11.83
2017-06-05T00:27:53.148Z,11.88
2017-06-05T00:28:53.142Z,11.88
2017-06-05T00:29:53.138Z,11.94
2017-06-05T00:30:53.129Z,11.98
2017-06-05T00:31:53.122Z,11.94
2017-06-05T00:32:53.118Z,12.13
2017-06-05T00:33:53.113Z,12.02
2017-06-05T00:34:53.109Z,12.12
2017-06-05T00:35:53.131Z,12.1
2017-06-05T00:36:53.090Z,12.24
2017-06-05T00:37:53.085Z,12.24
2017-06-05T00:38:53.082Z,12.29
2017-06-05T00:39:53.073Z,12.23
2017-06-05T00:40:53.107Z,12.34
2017-06-05T00:41:53.055Z,12.37
2017-06-05T00:42:53.053Z,12.35
2017-06-05T00:43:53.046Z,12.46
2017-06-05T00:44:53.039Z,12.59
2017-06-05T00:45:53.029Z,12.6
2017-06-05T00:46:52.721Z,12.56
2017-06-05T00:47:53.019Z,12.6
2017-06-05T00:48:53.011Z,12.7
2017-06-05T00:49:53.006Z,12.75
2017-06-05T00:50:53.000Z,12.71
2017-06-05T00:51:52.993Z,12.75
2017-06-05T00:52:52.382Z,12.75
2017-06-05T00:53:52.677Z,12.79
2017-06-05T00:54:52.974Z,12.75
2017-06-05T00:55:52.968Z,12.83
2017-06-05T00:56:52.962Z,12.87
2017-06-05T00:57:52.961Z,12.87
2017-06-05T00:58:52.948Z,12.92
2017-06-05T00:59:52.641Z,12.89
2017-06-05T01:00:52.336Z,12.92
2017-06-05T01:01:52.629Z,12.95
2017-06-05T01:02:52.923Z,12.97
2017-06-05T01:03:52.919Z,13
2017-06-05T01:04:52.313Z,12.85
2017-06-05T01:05:52.605Z,12.89
2017-06-05T01:06:52.900Z,12.86
2017-06-05T01:07:52.896Z,12.85
2017-06-05T01:08:52.890Z,12.72
2017-06-05T01:09:52.578Z,12.83
2017-06-05T01:10:52.577Z,12.71
2017-06-05T01:11:52.566Z,12.77
2017-06-05T01:12:52.866Z,12.75
2017-06-05T01:13:52.859Z,12.68
2017-06-05T01:14:52.854Z,12.67
2017-06-05T01:15:52.542Z,12.68
2017-06-05T01:16:52.558Z,12.59
2017-06-05T01:17:52.533Z,12.62
2017-06-05T01:18:52.524Z,12.62
2017-06-05T01:19:52.518Z,12.57
2017-06-05T01:20:52.511Z,12.56
2017-06-05T01:21:52.506Z,12.45
2017-06-05T01:22:52.499Z,12.49
2017-06-05T01:23:52.494Z,12.46
2017-06-05T01:24:52.791Z,12.52
2017-06-05T01:25:52.787Z,12.49
2017-06-05T01:26:52.777Z,12.56
2017-06-05T01:27:52.770Z,12.57
2017-06-05T01:28:52.769Z,12.59
2017-06-05T01:29:52.759Z,12.62
2017-06-05T01:30:52.755Z,12.53
2017-06-05T01:31:52.747Z,12.7
2017-06-05T01:32:52.745Z,12.74
2017-06-05T01:33:52.434Z,12.71
2017-06-05T01:34:52.730Z,12.67
2017-06-05T01:35:52.419Z,12.7
2017-06-05T01:36:52.722Z,12.71
2017-06-05T01:37:52.710Z,12.71
2017-06-05T01:38:52.707Z,12.78
2017-06-05T01:39:52.701Z,12.86
2017-06-05T01:40:52.698Z,12.86
2017-06-05T01:41:52.686Z,12.86
2017-06-05T01:42:52.686Z,12.82
2017-06-05T01:43:52.682Z,12.93
2017-06-05T01:44:52.667Z,13.01
2017-06-05T01:45:52.663Z,12.96
2017-06-05T01:46:52.657Z,12.93
2017-06-05T01:47:52.350Z,13
2017-06-05T01:48:52.647Z,13.05
2017-06-05T01:49:52.639Z,13.01
2017-06-05T01:50:52.632Z,13.01
2017-06-05T01:51:52.628Z,13.11
2017-06-05T01:52:52.620Z,13.11
2017-06-05T01:53:52.315Z,13.17
2017-06-05T01:54:52.608Z,13.17
2017-06-05T01:55:52.606Z,13.2
2017-06-05T01:56:52.594Z,13.28
2017-06-05T01:57:52.590Z,13.26
2017-06-05T01:58:52.588Z,13.28
2017-06-05T01:59:52.587Z,13.23
2017-06-05T02:00:52.571Z,13.28
2017-06-05T02:01:52.567Z,13.25
2017-06-05T02:02:52.562Z,13.23
2017-06-05T02:03:52.559Z,13.3
2017-06-05T02:04:52.548Z,13.32
2017-06-05T02:05:52.544Z,13.41
2017-06-05T02:06:52.541Z,13.36
2017-06-05T02:07:52.532Z,13.36
2017-06-05T02:08:52.222Z,13.41
2017-06-05T02:09:52.541Z,13.38
2017-06-05T02:10:52.210Z,13.36
2017-06-05T02:11:52.203Z,13.42
2017-06-05T02:12:52.198Z,13.45
2017-06-05T02:13:52.192Z,13.44
2017-06-05T02:14:52.195Z,13.54
2017-06-05T02:15:52.499Z,13.52
2017-06-05T02:16:52.176Z,13.51
2017-06-05T02:17:52.474Z,13.6
2017-06-05T02:18:52.472Z,13.54
2017-06-05T02:19:52.466Z,13.63
2017-06-05T02:20:52.462Z,13.59
2017-06-05T02:21:52.450Z,13.54
2017-06-05T02:22:52.445Z,13.55
2017-06-05T02:23:52.440Z,13.6
2017-06-05T02:24:52.432Z,13.63
2017-06-05T02:25:52.429Z,13.6
2017-06-05T02:26:52.118Z,13.59
2017-06-05T02:27:52.418Z,13.73
2017-06-05T02:28:52.413Z,13.69
2017-06-05T02:29:52.407Z,13.75
2017-06-05T02:30:52.402Z,13.77
2017-06-05T02:31:52.396Z,13.81
2017-06-05T02:32:52.087Z,13.79
2017-06-05T02:33:52.382Z,13.71
2017-06-05T02:34:52.377Z,13.7
2017-06-05T02:35:52.072Z,13.87
2017-06-05T02:36:52.403Z,13.88
2017-06-05T02:37:52.362Z,13.82
2017-06-05T02:38:52.354Z,13.82
2017-06-05T02:39:52.349Z,13.81
2017-06-05T02:40:52.042Z,13.85
2017-06-05T02:41:52.036Z,13.87
2017-06-05T02:42:52.032Z,13.85
2017-06-05T02:43:52.328Z,13.88
2017-06-05T02:44:52.325Z,13.85
2017-06-05T02:45:52.320Z,13.84
2017-06-05T02:46:52.310Z,13.82
2017-06-05T02:47:52.001Z,13.85
2017-06-05T02:48:51.996Z,13.88
2017-06-05T02:49:52.298Z,13.88
2017-06-05T02:50:52.290Z,13.92
2017-06-05T02:51:52.283Z,13.95
2017-06-05T02:52:52.281Z,13.85
2017-06-05T02:53:52.277Z,13.89
2017-06-05T02:54:52.268Z,13.84
2017-06-05T02:55:52.268Z,13.95
2017-06-05T02:56:52.261Z,13.82
2017-06-05T02:57:51.947Z,13.89
2017-06-05T02:58:52.253Z,13.87
2017-06-05T02:59:52.246Z,14
2017-06-05T03:00:52.238Z,13.92
2017-06-05T03:01:52.228Z,14.07
2017-06-05T03:02:52.224Z,14.04
2017-06-05T03:03:52.226Z,14.1
2017-06-05T03:04:52.218Z,14.09
2017-06-05T03:05:52.208Z,14.12
2017-06-05T03:06:52.204Z,14.18
2017-06-05T03:07:52.197Z,14.06
2017-06-05T03:08:52.197Z,14.17
2017-06-05T03:09:51.886Z,14.14
2017-06-05T03:10:52.183Z,14.2
2017-06-05T03:11:52.175Z,14.22
2017-06-05T03:12:52.174Z,14.2
2017-06-05T03:13:52.164Z,14.2
2017-06-05T03:14:52.163Z,14.22
2017-06-05T03:15:52.160Z,14.2
2017-06-05T03:16:52.149Z,14.28
2017-06-05T03:17:52.150Z,14.21
2017-06-05T03:18:51.846Z,14.28
2017-06-05T03:19:51.840Z,14.12
2017-06-05T03:20:52.135Z,14.22
2017-06-05T03:21:52.374Z,14.24
2017-06-05T03:22:52.122Z,14.22
2017-06-05T03:23:52.114Z,14.21
2017-06-05T03:24:52.111Z,14.24
2017-06-05T03:25:52.101Z,14.22
2017-06-05T03:26:52.098Z,14.24
2017-06-05T03:27:51.798Z,14.25
2017-06-05T03:28:52.090Z,14.22
2017-06-05T03:29:52.084Z,14.36
2017-06-05T03:30:52.077Z,14.25
2017-06-05T03:31:51.769Z,14.32
2017-06-05T03:32:52.066Z,14.28
2017-06-05T03:33:52.063Z,14.28
2017-06-05T03:34:52.062Z,14.28
2017-06-05T03:35:52.053Z,14.24
2017-06-05T03:36:52.049Z,14.28
2017-06-05T03:37:52.045Z,14.36
2017-06-05T03:38:52.038Z,14.43
2017-06-05T03:39:52.037Z,14.42
2017-06-05T03:40:51.729Z,14.46
2017-06-05T03:41:52.020Z,14.45
2017-06-05T03:42:52.013Z,14.54
2017-06-05T03:43:52.047Z,14.57
2017-06-05T03:44:52.005Z,14.52
2017-06-05T03:45:52.002Z,14.57
2017-06-05T03:46:51.996Z,14.54
2017-06-05T03:47:51.990Z,14.61
2017-06-05T03:48:51.985Z,14.6
2017-06-05T03:49:51.677Z,14.64
2017-06-05T03:50:51.974Z,14.62
2017-06-05T03:51:51.971Z,14.62
2017-06-05T03:52:51.963Z,14.61
2017-06-05T03:53:51.958Z,14.68
2017-06-05T03:54:51.955Z,14.7
2017-06-05T03:55:51.647Z,14.75
2017-06-05T03:56:51.975Z,14.88
2017-06-05T03:57:51.940Z,14.83
2017-06-05T03:58:51.940Z,14.96
2017-06-05T03:59:51.931Z,14.92
2017-06-05T04:00:51.924Z,15.07
2017-06-05T04:01:52.223Z,15.16
2017-06-05T04:02:51.914Z,15.21
2017-06-05T04:03:51.609Z,15.38
2017-06-05T04:04:51.906Z,15.47
2017-06-05T04:05:51.905Z,15.51
2017-06-05T04:06:51.908Z,15.64
2017-06-05T04:07:51.893Z,15.97
2017-06-05T04:08:51.590Z,16.07
2017-06-05T04:09:51.888Z,16.38
2017-06-05T04:10:51.879Z,16.57
2017-06-05T04:11:51.877Z,16.7
2017-06-05T04:12:51.875Z,16.83
2017-06-05T04:13:51.875Z,16.97
2017-06-05T04:14:51.869Z,17.11
2017-06-05T04:15:51.561Z,17.15
2017-06-05T04:16:51.557Z,17.12
2017-06-05T04:17:51.555Z,17.18
2017-06-05T04:18:51.852Z,17.26
2017-06-05T04:19:51.852Z,17.37
2017-06-05T04:20:51.852Z,17.38
2017-06-05T04:21:51.845Z,17.37
2017-06-05T04:22:51.839Z,17.38
2017-06-05T04:23:51.843Z,17.43
2017-06-05T04:24:51.864Z,17.46
2017-06-05T04:25:51.860Z,17.56
2017-06-05T04:26:51.830Z,17.58
2017-06-05T04:27:51.829Z,17.64
2017-06-05T04:28:51.827Z,17.64
2017-06-05T04:29:51.821Z,17.68
2017-06-05T04:30:51.819Z,17.59
2017-06-05T04:31:51.813Z,17.7
2017-06-05T04:32:51.812Z,17.64
2017-06-05T04:33:51.812Z,17.81
2017-06-05T04:34:51.812Z,17.78
2017-06-05T04:35:51.803Z,17.9
2017-06-05T04:36:51.497Z,17.82
2017-06-05T04:37:51.498Z,17.96
2017-06-05T04:38:51.800Z,17.9
2017-06-05T04:39:51.794Z,17.9
2017-06-05T04:40:51.790Z,18
2017-06-05T04:41:51.786Z,18.08
2017-06-05T04:42:51.785Z,18
2017-06-05T04:43:51.784Z,18.14
2017-06-05T04:44:51.778Z,18.07
2017-06-05T04:45:51.779Z,18.08
2017-06-05T04:46:51.779Z,18.02
2017-06-05T04:47:51.772Z,18.02
2017-06-05T04:48:51.768Z,17.97
2017-06-05T04:49:51.770Z,18.08
2017-06-05T04:50:51.762Z,18.15
2017-06-05T04:51:51.760Z,18.14
2017-06-05T04:52:51.761Z,18.15
2017-06-05T04:53:51.454Z,18.2
2017-06-05T04:54:51.449Z,18.32
2017-06-05T04:55:51.752Z,18.3
2017-06-05T04:56:51.745Z,18.39
2017-06-05T04:57:51.747Z,18.44
2017-06-05T04:58:51.444Z,18.54
2017-06-05T04:59:51.747Z,18.63
2017-06-05T05:00:51.739Z,18.72
2017-06-05T05:01:51.734Z,18.87
2017-06-05T05:02:51.736Z,18.92
2017-06-05T05:03:51.738Z,19.02
2017-06-05T05:04:51.431Z,19.06
2017-06-05T05:05:51.425Z,19.06
2017-06-05T05:06:51.727Z,19.13
2017-06-05T05:07:51.741Z,19.26
2017-06-05T05:08:51.725Z,19.22
2017-06-05T05:09:51.417Z,19.19
2017-06-05T05:10:51.718Z,19.23
2017-06-05T05:11:51.716Z,19.29
2017-06-05T05:12:51.731Z,19.31
2017-06-05T05:13:51.711Z,19.41
2017-06-05T05:14:51.711Z,19.54
2017-06-05T05:15:51.712Z,19.59
2017-06-05T05:16:51.706Z,19.71
2017-06-05T05:17:51.706Z,19.77
2017-06-05T05:18:51.707Z,19.81
2017-06-05T05:19:51.709Z,19.92
2017-06-05T05:20:51.703Z,20.03
2017-06-05T05:21:51.701Z,20.14
2017-06-05T05:22:51.697Z,20.18
2017-06-05T05:23:51.737Z,20.2
2017-06-05T05:24:51.394Z,20.29
2017-06-05T05:25:51.694Z,20.23
2017-06-05T05:26:51.694Z,20.29
2017-06-05T05:27:51.693Z,20.41
2017-06-05T05:28:51.692Z,20.35
2017-06-05T05:29:51.391Z,20.47
2017-06-05T05:30:51.388Z,20.41
2017-06-05T05:31:51.690Z,20.38
2017-06-05T05:32:51.412Z,20.41
2017-06-05T05:33:51.690Z,20.33
2017-06-05T05:34:51.688Z,20.33
2017-06-05T05:35:51.692Z,20.38
2017-06-05T05:36:51.383Z,20.29
2017-06-05T05:37:51.684Z,20.21
2017-06-05T05:38:51.689Z,20.05
2017-06-05T05:39:51.681Z,20.05
2017-06-05T05:40:51.715Z,19.98
2017-06-05T05:41:51.709Z,19.96
2017-06-05T05:42:51.377Z,19.94
2017-06-05T05:43:51.685Z,19.96
2017-06-05T05:44:51.678Z,19.87
2017-06-05T05:45:51.374Z,19.92
2017-06-05T05:46:51.676Z,19.84
2017-06-05T05:47:51.677Z,19.91
2017-06-05T05:48:51.678Z,19.86
2017-06-05T05:49:51.678Z,19.88
2017-06-05T05:50:51.672Z,19.94
2017-06-05T05:51:51.675Z,19.86
2017-06-05T05:52:51.373Z,19.99
2017-06-05T05:53:51.368Z,19.98
2017-06-05T05:54:51.075Z,19.83
2017-06-05T05:55:51.674Z,19.71
2017-06-05T05:56:51.672Z,19.73
2017-06-05T05:57:51.370Z,19.59
2017-06-05T05:58:51.675Z,19.71
2017-06-05T05:59:51.672Z,19.76
2017-06-05T06:00:51.666Z,19.73
2017-06-05T06:01:51.672Z,19.69
2017-06-05T06:02:51.674Z,19.86
2017-06-05T06:03:51.672Z,20.05
2017-06-05T06:04:51.668Z,20.18
2017-06-05T06:05:51.664Z,20.42
2017-06-05T06:06:51.672Z,20.64
2017-06-05T06:07:51.365Z,20.98
2017-06-05T06:08:51.666Z,21.25
2017-06-05T06:09:51.667Z,21.58
2017-06-05T06:10:51.671Z,21.84
2017-06-05T06:11:51.671Z,21.99
2017-06-05T06:12:51.672Z,22.25
2017-06-05T06:13:51.374Z,22.45
2017-06-05T06:14:51.676Z,22.49
2017-06-05T06:15:51.675Z,22.75
2017-06-05T06:16:51.376Z,22.86
2017-06-05T06:17:51.681Z,22.9
2017-06-05T06:18:51.074Z,23.12
2017-06-05T06:19:51.680Z,23.1
2017-06-05T06:20:51.382Z,23.19
2017-06-05T06:21:51.687Z,23.33
2017-06-05T06:22:51.689Z,23.61
2017-06-05T06:23:51.695Z,23.79
2017-06-05T06:24:51.696Z,24.06
2017-06-05T06:25:51.705Z,24.22
2017-06-05T06:26:51.706Z,24.61
2017-06-05T06:27:51.712Z,24.93
2017-06-05T06:28:51.716Z,25.3
2017-06-05T06:29:51.722Z,25.65
2017-06-05T06:30:51.727Z,25.8
2017-06-05T06:31:51.736Z,25.92
2017-06-05T06:32:51.741Z,25.85
2017-06-05T06:33:51.748Z,25.97
2017-06-05T06:34:51.754Z,26.2
2017-06-05T06:35:51.756Z,26.32
2017-06-05T06:36:51.769Z,26.54
2017-06-05T06:37:51.776Z,26.97
2017-06-05T06:38:51.783Z,27.28
2017-06-05T06:39:51.794Z,27.77
2017-06-05T06:40:51.814Z,28.04
2017-06-05T06:41:51.506Z,28.43
2017-06-05T06:42:51.817Z,28.71
2017-06-05T06:43:51.829Z,28.9
2017-06-05T06:44:51.836Z,29.06
2017-06-05T06:45:51.847Z,29.18
2017-06-05T06:46:51.856Z,29.16
2017-06-05T06:47:51.864Z,29.11
2017-06-05T06:48:51.608Z,28.92
2017-06-05T06:49:51.885Z,28.64
2017-06-05T06:50:51.893Z,28.39
2017-06-05T06:51:51.907Z,28.24
2017-06-05T06:52:51.917Z,28.04
2017-06-05T06:53:51.924Z,28.07
2017-06-05T06:54:51.932Z,27.96
2017-06-05T06:55:51.936Z,27.75
2017-06-05T06:56:51.958Z,27.63
2017-06-05T06:57:51.956Z,27.55
2017-06-05T06:58:51.662Z,27.5
2017-06-05T06:59:51.974Z,27.72
2017-06-05T07:00:51.684Z,27.88
2017-06-05T07:01:51.688Z,28.21
2017-06-05T07:02:52.002Z,28.58
2017-06-05T07:03:52.008Z,28.92
2017-06-05T07:04:52.021Z,29.14
2017-06-05T07:05:52.033Z,29.46
2017-06-05T07:06:52.039Z,29.79
2017-06-05T07:07:52.049Z,30.02
2017-06-05T07:08:52.065Z,30.22
2017-06-05T07:09:52.076Z,30.49
2017-06-05T07:10:52.114Z,30.46
2017-06-05T07:11:51.791Z,30.57
2017-06-05T07:12:52.107Z,30.65
2017-06-05T07:13:51.845Z,30.76
2017-06-05T07:14:51.825Z,31.09
2017-06-05T07:15:52.140Z,31.32
2017-06-05T07:16:52.155Z,31.34
2017-06-05T07:17:51.861Z,31.39
2017-06-05T07:18:51.878Z,31.39
2017-06-05T07:19:52.192Z,31.48
2017-06-05T07:20:52.200Z,31.53
2017-06-05T07:21:52.215Z,31.53
2017-06-05T07:22:52.232Z,31.76
2017-06-05T07:23:51.936Z,31.81
2017-06-05T07:24:52.255Z,31.8
2017-06-05T07:25:52.270Z,32.06
2017-06-05T07:26:52.283Z,32.5
2017-06-05T07:27:52.298Z,32.77
2017-06-05T07:28:52.311Z,33.12
2017-06-05T07:29:52.326Z,33.61
2017-06-05T07:30:52.342Z,34.03
2017-06-05T07:31:52.353Z,34.1
2017-06-05T07:32:52.371Z,34.08
2017-06-05T07:33:52.389Z,33.88
2017-06-05T07:34:52.405Z,33.56
2017-06-05T07:35:52.418Z,33.37
2017-06-05T07:36:52.429Z,33.18
2017-06-05T07:37:52.447Z,33.07
2017-06-05T07:38:52.461Z,33.21
2017-06-05T07:39:52.474Z,33.31
2017-06-05T07:40:52.490Z,33.59
2017-06-05T07:41:52.506Z,33.76
2017-06-05T07:42:52.520Z,33.97
2017-06-05T07:43:52.231Z,34.21
2017-06-05T07:44:52.551Z,34.24
2017-06-05T07:45:52.260Z,34.22
2017-06-05T07:46:52.584Z,34.17
2017-06-05T07:47:52.290Z,34.3
2017-06-05T07:48:52.605Z,34.22
2017-06-05T07:49:52.622Z,34.12
2017-06-05T07:50:52.639Z,33.95
2017-06-05T07:51:52.650Z,33.82
2017-06-05T07:52:52.664Z,33.84
2017-06-05T07:53:52.679Z,34.22
2017-06-05T07:54:52.691Z,34.35
2017-06-05T07:55:52.708Z,34.56
2017-06-05T07:56:52.721Z,34.87
2017-06-05T07:57:52.734Z,35.15
2017-06-05T07:58:52.748Z,35.18
2017-06-05T07:59:52.774Z,35.38
2017-06-05T08:00:52.779Z,35.45
2017-06-05T08:01:52.802Z,35.71
2017-06-05T08:02:52.810Z,35.9
2017-06-05T08:03:52.825Z,35.97
2017-06-05T08:04:52.539Z,36.25
2017-06-05T08:05:52.857Z,36.29
2017-06-05T08:06:52.601Z,36.12
2017-06-05T08:07:52.589Z,35.99
2017-06-05T08:08:52.908Z,36.03
2017-06-05T08:09:52.923Z,36.07
2017-06-05T08:10:52.942Z,36.16
2017-06-05T08:11:52.957Z,36.23
2017-06-05T08:12:52.975Z,36.39
2017-06-05T08:13:52.991Z,36.47
2017-06-05T08:14:53.012Z,36.49
2017-06-05T08:15:53.025Z,36.38
2017-06-05T08:16:53.043Z,36.37
2017-06-05T08:17:53.060Z,36.25
2017-06-05T08:18:53.071Z,36.15
2017-06-05T08:19:53.088Z,36.13
2017-06-05T08:20:53.104Z,36.05
2017-06-05T08:21:53.125Z,35.84
2017-06-05T08:22:52.831Z,35.6
2017-06-05T08:23:53.154Z,35.34
2017-06-05T08:24:53.171Z,35.09
2017-06-05T08:25:53.182Z,34.92
2017-06-05T08:26:52.897Z,34.72
2017-06-05T08:27:53.216Z,34.64
2017-06-05T08:28:53.230Z,34.47
2017-06-05T08:29:52.942Z,34.31
2017-06-05T08:30:53.260Z,34.1
2017-06-05T08:31:53.271Z,33.91
2017-06-05T08:32:53.315Z,33.79
2017-06-05T08:33:53.000Z,33.65
2017-06-05T08:34:53.317Z,33.59
2017-06-05T08:35:53.332Z,33.44
2017-06-05T08:36:53.347Z,33.49
2017-06-05T08:37:53.058Z,33.54
2017-06-05T08:38:53.379Z,33.61
2017-06-05T08:39:53.420Z,33.54
2017-06-05T08:40:53.401Z,33.68
2017-06-05T08:41:53.419Z,33.78
2017-06-05T08:42:53.434Z,33.79
2017-06-05T08:43:53.442Z,33.95
2017-06-05T08:44:52.852Z,34.03
2017-06-05T08:45:53.474Z,34.05
2017-06-05T08:46:53.487Z,34.06
2017-06-05T08:47:53.196Z,33.87
2017-06-05T08:48:53.514Z,33.76
2017-06-05T08:49:53.529Z,33.69
2017-06-05T08:50:53.545Z,33.49
2017-06-05T08:51:53.563Z,33.35
2017-06-05T08:52:53.268Z,33.14
2017-06-05T08:53:53.590Z,33.03
2017-06-05T08:54:53.604Z,32.75
2017-06-05T08:55:53.316Z,32.59
2017-06-05T08:56:53.628Z,32.38
2017-06-05T08:57:53.338Z,32.04
2017-06-05T08:58:53.658Z,31.73
2017-06-05T08:59:53.671Z,31.43
2017-06-05T09:00:53.680Z,31.2
2017-06-05T09:01:53.697Z,30.97
2017-06-05T09:02:53.401Z,30.57
2017-06-05T09:03:53.716Z,30.27
2017-06-05T09:04:53.731Z,29.97
2017-06-05T09:05:53.740Z,29.79
2017-06-05T09:06:53.750Z,29.7
2017-06-05T09:07:53.455Z,29.46
2017-06-05T09:08:53.769Z,29.39
2017-06-05T09:09:53.479Z,29.26
2017-06-05T09:10:53.792Z,29.06
2017-06-05T09:11:53.798Z,28.92
2017-06-05T09:12:53.509Z,28.92
2017-06-05T09:13:53.817Z,28.85
2017-06-05T09:14:53.828Z,28.71
2017-06-05T09:15:53.837Z,28.56
2017-06-05T09:16:53.845Z,28.39
2017-06-05T09:17:53.855Z,28.4
2017-06-05T09:18:53.863Z,28.22
2017-06-05T09:19:53.868Z,28.12
2017-06-05T09:20:53.879Z,28.02
2017-06-05T09:21:53.884Z,27.87
2017-06-05T09:22:53.893Z,27.84
2017-06-05T09:23:53.900Z,27.72
2017-06-05T09:24:53.909Z,27.7
2017-06-05T09:25:53.612Z,27.6
2017-06-05T09:26:53.923Z,27.49
2017-06-05T09:27:53.929Z,27.46
2017-06-05T09:28:53.938Z,27.44
2017-06-05T09:29:53.946Z,27.28
2017-06-05T09:30:53.950Z,27.29
2017-06-05T09:31:53.957Z,27.17
2017-06-05T09:32:53.663Z,27.19
2017-06-05T09:33:53.666Z,27.17
2017-06-05T09:34:53.981Z,27.17
2017-06-05T09:35:53.988Z,27.13
2017-06-05T09:36:53.992Z,27
2017-06-05T09:37:53.996Z,27.03
2017-06-05T09:38:54.002Z,26.94
2017-06-05T09:39:54.011Z,26.92
2017-06-05T09:40:54.016Z,26.87
2017-06-05T09:41:54.021Z,26.85
2017-06-05T09:42:54.035Z,26.8
2017-06-05T09:43:54.034Z,26.88
2017-06-05T09:44:54.040Z,26.85
2017-06-05T09:45:54.049Z,26.85
2017-06-05T09:46:54.050Z,26.89
2017-06-05T09:47:54.057Z,26.99
2017-06-05T09:48:54.062Z,27
2017-06-05T09:49:53.766Z,27.02
2017-06-05T09:50:54.073Z,27.06
2017-06-05T09:51:54.080Z,27.07
2017-06-05T09:52:54.084Z,27
2017-06-05T09:53:54.092Z,27.14
2017-06-05T09:54:54.099Z,27.12
2017-06-05T09:55:54.102Z,27.17
2017-06-05T09:56:54.107Z,27.21
2017-06-05T09:57:53.807Z,27.24
2017-06-05T09:58:53.816Z,27.28
2017-06-05T09:59:54.126Z,27.46
2017-06-05T10:00:53.826Z,27.6
2017-06-05T10:01:54.136Z,27.63
2017-06-05T10:02:54.144Z,27.69
2017-06-05T10:03:54.149Z,27.79
2017-06-05T10:04:54.157Z,27.88
2017-06-05T10:05:54.160Z,27.81
2017-06-05T10:06:54.164Z,27.84
2017-06-05T10:07:53.868Z,27.82
2017-06-05T10:08:53.873Z,27.81
2017-06-05T10:09:53.882Z,27.88
2017-06-05T10:10:54.190Z,27.96
2017-06-05T10:11:54.196Z,27.92
2017-06-05T10:12:54.202Z,27.97
2017-06-05T10:13:54.210Z,28.04
2017-06-05T10:14:54.211Z,28
2017-06-05T10:15:54.221Z,28.07
2017-06-05T10:16:54.225Z,28.09
2017-06-05T10:17:54.230Z,28.06
2017-06-05T10:18:54.240Z,28.07
2017-06-05T10:19:54.246Z,28.04
2017-06-05T10:20:54.251Z,28.15
2017-06-05T10:21:54.254Z,28.17
2017-06-05T10:22:54.259Z,28.12
2017-06-05T10:23:54.267Z,28.09
2017-06-05T10:24:53.968Z,28.06
2017-06-05T10:25:53.974Z,28.21
2017-06-05T10:26:53.981Z,28.11
2017-06-05T10:27:54.289Z,28.06
2017-06-05T10:28:54.301Z,28
2017-06-05T10:29:54.303Z,27.96
2017-06-05T10:30:54.005Z,28.06
2017-06-05T10:31:54.316Z,28.04
2017-06-05T10:32:54.018Z,28.03
2017-06-05T10:33:54.024Z,28.03
2017-06-05T10:34:54.338Z,28
2017-06-05T10:35:54.035Z,28.03
2017-06-05T10:36:54.041Z,28
2017-06-05T10:37:54.349Z,27.85
2017-06-05T10:38:54.357Z,27.84
2017-06-05T10:39:54.364Z,27.78
2017-06-05T10:40:54.373Z,27.84
2017-06-05T10:41:54.375Z,27.72
2017-06-05T10:42:54.379Z,27.78
2017-06-05T10:43:54.390Z,27.78
2017-06-05T10:44:54.393Z,27.62
2017-06-05T10:45:54.400Z,27.51
2017-06-05T10:46:54.407Z,27.41
2017-06-05T10:47:54.106Z,27.44
2017-06-05T10:48:54.114Z,27.5
2017-06-05T10:49:54.419Z,27.55
2017-06-05T10:50:54.425Z,27.59
2017-06-05T10:51:54.431Z,27.62
2017-06-05T10:52:54.437Z,27.63
2017-06-05T10:53:54.443Z,27.66
2017-06-05T10:54:54.446Z,27.63
2017-06-05T10:55:54.453Z,27.6
2017-06-05T10:56:54.465Z,27.57
2017-06-05T10:57:54.161Z,27.46
2017-06-05T10:58:54.469Z,27.41
2017-06-05T10:59:54.475Z,27.41
2017-06-05T11:00:54.179Z,27.44
2017-06-05T11:01:54.486Z,27.41
2017-06-05T11:02:54.489Z,27.44
2017-06-05T11:03:54.229Z,27.4
2017-06-05T11:04:54.503Z,27.43
2017-06-05T11:05:54.507Z,27.46
2017-06-05T11:06:54.517Z,27.43
2017-06-05T11:07:54.518Z,27.4
2017-06-05T11:08:54.219Z,27.31
2017-06-05T11:09:54.533Z,27.25
2017-06-05T11:10:54.536Z,27.12
2017-06-05T11:11:54.540Z,27.07
2017-06-05T11:12:54.544Z,27.13
2017-06-05T11:13:54.549Z,27.17
2017-06-05T11:14:54.253Z,27.04
2017-06-05T11:15:54.568Z,27
2017-06-05T11:16:54.566Z,27.17
2017-06-05T11:17:54.574Z,27.13
2017-06-05T11:18:54.575Z,27.28
2017-06-05T11:19:54.583Z,27.28
2017-06-05T11:20:54.586Z,27.41
2017-06-05T11:21:54.290Z,27.47
2017-06-05T11:22:54.596Z,27.57
2017-06-05T11:23:54.299Z,27.47
2017-06-05T11:24:54.606Z,27.57
2017-06-05T11:25:54.310Z,27.57
2017-06-05T11:26:54.621Z,27.59
2017-06-05T11:27:54.332Z,27.63
2017-06-05T11:28:54.627Z,27.75
2017-06-05T11:29:54.662Z,27.81
2017-06-05T11:30:54.641Z,27.93
2017-06-05T11:31:54.343Z,28.02
2017-06-05T11:32:54.344Z,28.15
2017-06-05T11:33:54.659Z,28.36
2017-06-05T11:34:54.355Z,28.44
2017-06-05T11:35:54.669Z,28.51
2017-06-05T11:36:54.368Z,28.51
2017-06-05T11:37:54.678Z,28.59
2017-06-05T11:38:54.687Z,28.71
2017-06-05T11:39:54.688Z,28.71
2017-06-05T11:40:54.696Z,28.76
2017-06-05T11:41:54.699Z,28.86
2017-06-05T11:42:54.707Z,28.86
2017-06-05T11:43:54.711Z,28.89
2017-06-05T11:44:54.717Z,28.88
2017-06-05T11:45:54.116Z,28.71
2017-06-05T11:46:54.427Z,28.56
2017-06-05T11:47:54.734Z,28.43
2017-06-05T11:48:54.439Z,28.39
2017-06-05T11:49:54.747Z,28.21
2017-06-05T11:50:54.757Z,28.27
2017-06-05T11:51:54.760Z,28.06
2017-06-05T11:52:54.763Z,28.07
2017-06-05T11:53:54.772Z,27.99
2017-06-05T11:54:54.775Z,27.94
2017-06-05T11:55:54.818Z,27.94
2017-06-05T11:56:54.483Z,27.94
2017-06-05T11:57:54.497Z,27.81
2017-06-05T11:58:54.797Z,27.81
2017-06-05T11:59:54.502Z,27.75
2017-06-05T12:00:54.815Z,27.79
2017-06-05T12:01:54.512Z,27.79
2017-06-05T12:02:54.517Z,27.79
2017-06-05T12:03:54.523Z,27.74
2017-06-05T12:04:54.837Z,27.7
2017-06-05T12:05:54.835Z,27.81
2017-06-05T12:06:54.539Z,27.92
2017-06-05T12:07:54.241Z,28.06
2017-06-05T12:08:54.551Z,28.12
2017-06-05T12:09:54.554Z,28.27
2017-06-05T12:10:54.864Z,28.33
2017-06-05T12:11:54.868Z,28.52
2017-06-05T12:12:54.877Z,28.58
2017-06-05T12:13:54.879Z,28.56
2017-06-05T12:14:54.886Z,28.66
2017-06-05T12:15:54.893Z,28.64
2017-06-05T12:16:54.897Z,28.68
2017-06-05T12:17:54.903Z,28.77
2017-06-05T12:18:54.908Z,28.88
2017-06-05T12:19:54.918Z,28.83
2017-06-05T12:20:54.920Z,28.95
2017-06-05T12:21:54.931Z,29.08
2017-06-05T12:22:54.935Z,29.21
2017-06-05T12:23:54.943Z,29.31
2017-06-05T12:24:54.948Z,29.31
2017-06-05T12:25:54.954Z,29.34
2017-06-05T12:26:54.959Z,29.48
2017-06-05T12:27:54.971Z,29.45
2017-06-05T12:28:54.971Z,29.58
2017-06-05T12:29:54.975Z,29.6
2017-06-05T12:30:55.018Z,29.73
2017-06-05T12:31:54.991Z,29.65
2017-06-05T12:32:54.998Z,29.68
2017-06-05T12:33:55.002Z,29.61
2017-06-05T12:34:55.357Z,29.55
2017-06-05T12:35:55.014Z,29.45
2017-06-05T12:36:55.022Z,29.53
2017-06-05T12:37:54.724Z,29.41
2017-06-05T12:38:55.035Z,29.43
2017-06-05T12:39:55.039Z,29.39
2017-06-05T12:40:54.750Z,29.36
2017-06-05T12:41:55.058Z,29.39
2017-06-05T12:42:54.756Z,29.36
2017-06-05T12:43:55.067Z,29.33
2017-06-05T12:44:55.073Z,29.37
2017-06-05T12:45:55.079Z,29.33
2017-06-05T12:46:54.785Z,29.27
2017-06-05T12:47:54.789Z,29.28
2017-06-05T12:48:55.102Z,29.21
2017-06-05T12:49:55.106Z,29.21
2017-06-05T12:50:55.112Z,29.14
2017-06-05T12:51:54.816Z,29.18
2017-06-05T12:52:55.124Z,29.05
2017-06-05T12:53:55.130Z,29.02
2017-06-05T12:54:55.137Z,28.92
2017-06-05T12:55:54.838Z,28.81